createdAt,value
2022-08-05T00:03:09.434Z,100735.06
2022-08-05T00:08:35.083Z,100737.03
2022-08-05T00:13:40.164Z,100739.75
2022-08-05T00:18:48.293Z,100739.19
2022-08-05T00:23:53.403Z,100740.22
2022-08-05T00:28:56.810Z,100746.44
2022-08-05T00:34:54.548Z,100739.34
2022-08-05T00:39:24.829Z,100742.06
2022-08-05T00:44:30.442Z,100736.22
2022-08-05T00:49:51.167Z,100734.66
2022-08-05T00:54:56.584Z,100741.19
2022-08-05T00:59:59.558Z,100724.31
2022-08-05T01:05:02.619Z,100728.94
2022-08-05T01:10:15.024Z,100724.31
2022-08-05T01:15:36.481Z,100720.25
2022-08-05T01:20:47.116Z,100724.72
2022-08-05T01:26:01.544Z,100714.69
2022-08-05T01:31:10.444Z,100715.00
2022-08-05T01:36:16.417Z,100713.56
2022-08-05T01:41:22.445Z,100706.34
2022-08-05T01:46:42.191Z,100711.09
2022-08-05T01:51:51.766Z,100709.53
2022-08-05T01:58:10.638Z,100713.31
2022-08-05T02:02:28.405Z,100702.75
2022-08-05T02:07:32.360Z,100702.91
2022-08-05T02:12:39.653Z,100698.88
2022-08-05T02:18:30.646Z,100685.69
2022-08-05T02:23:12.858Z,100690.47
2022-08-05T02:28:28.625Z,100682.50
2022-08-05T02:33:38.896Z,100689.97
2022-08-05T02:38:43.712Z,100679.28
2022-08-05T02:44:05.880Z,100684.63
2022-08-05T02:49:12.135Z,100680.56
2022-08-05T02:54:35.828Z,100671.78
2022-08-05T02:59:50.105Z,100672.06
2022-08-05T03:04:55.675Z,100664.81
2022-08-05T03:09:58.877Z,100675.63
2022-08-05T03:15:01.818Z,100669.44
2022-08-05T03:20:07.304Z,100659.69
2022-08-05T03:25:32.462Z,100653.75
2022-08-05T03:30:38.157Z,100660.97
2022-08-05T03:35:42.665Z,100659.31
2022-08-05T03:40:47.380Z,100650.41
2022-08-05T03:45:58.083Z,100646.69
2022-08-05T03:52:36.836Z,100657.25
2022-08-05T03:56:35.715Z,100645.97
2022-08-05T04:01:41.295Z,100653.63
2022-08-05T04:06:51.384Z,100652.69
2022-08-05T04:11:56.431Z,100651.81
2022-08-05T04:17:00.930Z,100646.44
2022-08-05T04:22:11.722Z,100652.53
2022-08-05T04:27:15.419Z,100658.53
2022-08-05T04:32:20.137Z,100659.84
2022-08-05T04:38:02.797Z,100657.69
2022-08-05T04:42:58.846Z,100652.19
2022-08-05T04:48:05.266Z,100649.34
2022-08-05T04:53:10.388Z,100651.91
2022-08-05T04:58:13.884Z,100644.47
2022-08-05T05:03:24.598Z,100651.47
2022-08-05T05:08:30.463Z,100656.38
2022-08-05T05:13:43.267Z,100658.88
2022-08-05T05:19:02.746Z,100654.97
2022-08-05T05:24:10.864Z,100659.09
2022-08-05T05:29:14.705Z,100665.69
2022-08-05T05:34:22.515Z,100674.25
2022-08-05T05:39:34.499Z,100671.41
2022-08-05T05:44:44.430Z,100678.94
2022-08-05T05:49:56.501Z,100675.00
2022-08-05T05:55:01.823Z,100669.25
2022-08-05T06:00:11.915Z,100669.66
2022-08-05T06:05:16.742Z,100667.34
2022-08-05T06:10:21.457Z,100672.16
2022-08-05T06:16:30.645Z,100659.25
2022-08-05T06:20:50.017Z,100659.53
2022-08-05T06:26:12.355Z,100662.66
2022-08-05T06:31:21.953Z,100669.06
2022-08-05T06:36:25.992Z,100652.72
2022-08-05T06:41:30.467Z,100657.47
2022-08-05T06:46:37.758Z,100651.72
2022-08-05T06:51:40.994Z,100653.03
2022-08-05T06:56:54.677Z,100651.56
2022-08-05T07:02:09.119Z,100646.63
2022-08-05T07:07:12.088Z,100639.19
2022-08-05T07:12:33.490Z,100634.34
2022-08-05T07:18:02.424Z,100635.53
2022-08-05T07:22:59.342Z,100635.06
2022-08-05T07:28:08.201Z,100627.47
2022-08-05T07:33:16.007Z,100625.25
2022-08-05T07:38:33.041Z,100621.47
2022-08-05T07:43:39.875Z,100624.34
2022-08-05T07:49:01.499Z,100619.56
2022-08-05T07:54:10.089Z,100616.34
2022-08-05T07:59:14.740Z,100614.63
2022-08-05T08:04:17.654Z,100616.19
2022-08-05T08:09:37.458Z,100614.28
2022-08-05T08:14:42.054Z,100613.81
2022-08-05T08:20:43.944Z,100623.28
2022-08-05T08:25:16.222Z,100616.97
2022-08-05T08:30:32.206Z,100606.78
2022-08-05T08:35:41.315Z,100603.84
2022-08-05T08:40:51.680Z,100604.56
2022-08-05T08:45:57.668Z,100605.72
2022-08-05T08:51:23.224Z,100596.22
2022-08-05T08:56:27.195Z,100592.38
2022-08-05T09:01:32.719Z,100584.63
2022-08-05T09:06:36.267Z,100585.63
2022-08-05T09:11:53.064Z,100576.31
2022-08-05T09:16:59.440Z,100578.31
2022-08-05T09:22:22.912Z,100582.31
2022-08-05T09:28:04.503Z,100571.84
2022-08-05T09:33:02.120Z,100567.03
2022-08-05T09:38:12.124Z,100561.91
2022-08-05T09:43:28.011Z,100559.16
2022-08-05T09:49:06.625Z,100541.19
2022-08-05T09:54:10.136Z,100549.22
2022-08-05T09:59:17.079Z,100542.22
2022-08-05T10:04:29.188Z,100540.31
2022-08-05T10:09:44.844Z,100526.03
2022-08-05T10:14:48.558Z,100530.06
2022-08-05T10:20:02.856Z,100527.44
2022-08-05T10:25:08.353Z,100511.22
2022-08-05T10:31:20.413Z,100504.84
2022-08-05T10:35:40.650Z,100491.81
2022-08-05T10:40:57.790Z,100491.34
2022-08-05T10:46:06.212Z,100480.41
2022-08-05T10:51:21.671Z,100480.47
2022-08-05T10:56:26.550Z,100485.03
2022-08-05T11:01:55.128Z,100482.38
2022-08-05T11:07:12.074Z,100474.94
2022-08-05T11:12:42.384Z,100461.00
2022-08-05T11:17:59.346Z,100454.22
2022-08-05T11:23:18.726Z,100448.88
2022-08-05T11:28:43.172Z,100455.34
2022-08-05T11:33:55.656Z,100441.66
2022-08-05T11:39:01.821Z,100432.25
2022-08-05T11:44:08.399Z,100435.13
2022-08-05T11:49:14.773Z,100426.44
2022-08-05T11:54:33.795Z,100434.16
2022-08-05T11:59:41.375Z,100426.44
2022-08-05T12:04:59.326Z,100431.38
2022-08-05T12:10:09.334Z,100426.50
2022-08-05T12:15:20.124Z,100417.00
2022-08-05T12:20:42.500Z,100409.41
2022-08-05T12:25:52.130Z,100405.50
2022-08-05T12:30:57.288Z,100397.84
2022-08-05T12:36:02.003Z,100398.91
2022-08-05T12:41:12.935Z,100391.22
2022-08-05T12:46:28.050Z,100389.50
2022-08-05T12:52:12.830Z,100383.13
2022-08-05T12:57:09.280Z,100385.31
2022-08-05T13:02:13.989Z,100380.84
2022-08-05T13:07:35.807Z,100376.94
2022-08-05T13:12:51.146Z,100368.03
2022-08-05T13:18:00.650Z,100363.41
2022-08-05T13:23:07.398Z,100365.16
2022-08-05T13:28:10.844Z,100358.25
2022-08-05T13:33:14.337Z,100351.16
2022-08-05T13:38:42.474Z,100351.84
2022-08-05T13:43:55.068Z,100350.66
2022-08-05T13:49:00.489Z,100346.06
2022-08-05T13:54:11.599Z,100342.03
2022-08-05T13:59:20.170Z,100335.00
2022-08-05T14:04:41.818Z,100335.50
2022-08-05T14:09:46.729Z,100333.28
2022-08-05T14:14:49.858Z,100325.22
2022-08-05T14:19:56.935Z,100321.19
2022-08-05T14:25:06.319Z,100315.91
2022-08-05T14:30:26.380Z,100325.50
2022-08-05T14:35:36.889Z,100313.00
2022-08-05T14:40:54.264Z,100311.25
2022-08-05T14:45:57.265Z,100315.28
2022-08-05T14:51:00.218Z,100315.59
2022-08-05T14:56:07.971Z,100316.00
2022-08-05T15:01:16.141Z,100317.66
2022-08-05T15:06:19.862Z,100313.19
2022-08-05T15:11:51.788Z,100312.75
2022-08-05T15:16:55.562Z,100314.56
2022-08-05T15:21:59.996Z,100302.31
2022-08-05T15:27:04.971Z,100299.94
2022-08-05T15:32:12.238Z,100302.72
2022-08-05T15:37:19.344Z,100300.75
2022-08-05T15:42:55.817Z,100300.88
2022-08-05T15:47:57.677Z,100309.41
2022-08-05T15:53:04.145Z,100297.16
2022-08-05T15:58:16.860Z,100293.06
2022-08-05T16:03:20.023Z,100292.84
2022-08-05T16:08:23.989Z,100288.09
2022-08-05T16:13:36.785Z,100292.56
2022-08-05T16:18:52.255Z,100292.03
2022-08-05T16:24:00.180Z,100290.75
2022-08-05T16:29:07.362Z,100282.03
2022-08-05T16:34:11.663Z,100284.09
2022-08-05T16:39:15.265Z,100274.63
2022-08-05T16:44:20.992Z,100279.09
2022-08-05T16:49:29.097Z,100267.13
2022-08-05T16:54:32.339Z,100272.13
2022-08-05T17:00:04.326Z,100270.38
2022-08-05T17:05:02.678Z,100272.00
2022-08-05T17:10:06.017Z,100278.41
2022-08-05T17:15:15.851Z,100278.47
2022-08-05T17:20:22.783Z,100275.88
2022-08-05T17:25:39.547Z,100274.78
2022-08-05T17:30:50.821Z,100277.69
2022-08-05T17:36:08.783Z,100287.41
2022-08-05T17:42:16.833Z,100288.44
2022-08-05T17:46:42.786Z,100293.00
2022-08-05T17:51:46.184Z,100293.03
2022-08-05T17:56:53.185Z,100284.91
2022-08-05T18:01:57.527Z,100285.81
2022-08-05T18:07:01.929Z,100288.38
2022-08-05T18:12:05.650Z,100295.53
2022-08-05T18:18:01.076Z,100297.38
2022-08-05T18:22:46.036Z,100299.19
2022-08-05T18:27:56.302Z,100311.66
2022-08-05T18:33:01.536Z,100301.88
2022-08-05T18:38:04.924Z,100305.25
2022-08-05T18:43:09.160Z,100305.13
2022-08-05T18:48:30.766Z,100311.41
2022-08-05T18:53:34.824Z,100304.06
2022-08-05T18:58:51.015Z,100312.69
2022-08-05T19:03:59.215Z,100311.56
2022-08-05T19:09:02.191Z,100313.94
2022-08-05T19:14:37.518Z,100312.75
2022-08-05T19:19:31.358Z,100314.88
2022-08-05T19:24:35.147Z,100308.56
2022-08-05T19:29:38.548Z,100316.78
2022-08-05T19:34:55.242Z,100316.03
2022-08-05T19:39:59.211Z,100316.84
2022-08-05T19:45:02.364Z,100306.31
2022-08-05T19:50:10.528Z,100315.44
2022-08-05T19:56:14.086Z,100319.31
2022-08-05T20:00:38.469Z,100320.72
2022-08-05T20:05:43.160Z,100326.47
2022-08-05T20:10:53.558Z,100325.22
2022-08-05T20:15:57.715Z,100318.56
2022-08-05T20:21:02.534Z,100320.72
2022-08-05T20:26:08.070Z,100317.44
2022-08-05T20:31:21.963Z,100325.81
2022-08-05T20:36:32.864Z,100315.84
2022-08-05T20:41:43.775Z,100328.50
2022-08-05T20:46:48.139Z,100323.66
2022-08-05T20:51:53.708Z,100321.28
2022-08-05T20:56:57.352Z,100326.06
2022-08-05T21:02:00.569Z,100329.81
2022-08-05T21:07:04.948Z,100327.44
2022-08-05T21:12:12.033Z,100335.13
2022-08-05T21:17:19.897Z,100337.03
2022-08-05T21:22:26.021Z,100328.53
2022-08-05T21:27:29.247Z,100336.84
2022-08-05T21:32:42.055Z,100339.91
2022-08-05T21:37:53.162Z,100339.72
2022-08-05T21:42:59.147Z,100335.25
2022-08-05T21:48:06.611Z,100334.59
2022-08-05T21:53:16.670Z,100332.84
2022-08-05T21:58:22.274Z,100334.88
2022-08-05T22:03:52.379Z,100334.34
2022-08-05T22:08:57.825Z,100336.56
2022-08-05T22:14:06.091Z,100341.34
2022-08-05T22:20:01.266Z,100337.91
2022-08-05T22:25:20.941Z,100350.44
2022-08-05T22:30:35.398Z,100340.91
2022-08-05T22:35:48.885Z,100339.50
2022-08-05T22:40:54.958Z,100340.75
2022-08-05T22:45:58.310Z,100340.66
2022-08-05T22:51:01.524Z,100340.66
2022-08-05T22:56:11.654Z,100340.97
2022-08-05T23:01:16.821Z,100335.00
2022-08-05T23:06:26.313Z,100325.88
2022-08-05T23:11:30.879Z,100333.50
2022-08-05T23:16:52.033Z,100329.22
2022-08-05T23:21:55.129Z,100324.13
2022-08-05T23:26:59.476Z,100326.03
2022-08-05T23:32:03.641Z,100321.81
2022-08-05T23:37:07.109Z,100327.13
2022-08-05T23:42:15.623Z,100328.41
2022-08-05T23:47:26.601Z,100340.38
2022-08-05T23:52:36.065Z,100343.19
2022-08-05T23:57:53.861Z,100333.53
